Elandra Spruce — V7JM5 — position and weather

sailwx.info

Track history (hours):
 
Tides and Currents Weather Stations Pressure Air Temp Water Temp Dewpoint Dewpoint Depression Visibility Wind Speed Wind Dir Waves Ship Positions

Elandra Spruce

Last reported at 2016-Jul-14 20:33 UTC. Time now 2016-Jul-28 16:29 UTC.
Position N 01°14' E 103°58'.
Warning: this ship's position is 13 days out of date.

Length 183 m; draft 8.1 m.

Type: Tanker. MMSI: 538006719.

Date/timePositionNaut miles runAvg speedWind from/ knotsBaromVisibWave heightAir tempDewpointWater temp
2016-Jul-14 20:33N 01°14' E 103°58'1414.0
2016-Jul-14 19:33N 01°07' E 103°45'8 3.3
2016-Jul-14 17:11N 01°13' E 103°40'5 7.1
2016-Jul-14 16:33N 01°17' E 103°40'2 0.0
2016-Jul-12 18:11N 01°17' E 103°42'1 1.3
2016-Jul-12 17:32N 01°18' E 103°41'6 5.7
2016-Jul-12 16:32N 01°12' E 103°40'1 0.9
2016-Jul-12 15:29N 01°12' E 103°41'0 0.0
2016-Jul-12 14:23N 01°12' E 103°41'0 0.0
2016-Jul-12 13:23N 01°12' E 103°41'0 0.0
2016-Jul-12 12:29N 01°12' E 103°41'0 0.1
2016-Jul-12 10:14N 01°12' E 103°41'0 0.0
2016-Jul-12 09:17N 01°12' E 103°41'0 0.0
2016-Jul-12 06:29N 01°12' E 103°41'0 0.1
2016-Jul-12 05:29N 01°12' E 103°41'0 0.0
2016-Jul-12 01:11N 01°12' E 103°41'0 0.1
2016-Jul-12 00:17N 01°12' E 103°41'0 0.0
2016-Jul-11 23:23N 01°12' E 103°41'0 0.0
2016-Jul-11 22:23N 01°12' E 103°41'0 0.3
2016-Jul-11 21:27N 01°12' E 103°42'5 4.9
2016-Jul-11 20:23N 01°13' E 103°36'4 0.1
2016-Jul-10 07:23N 01°11' E 103°40'8 9.6
2016-Jul-10 06:33N 01°11' E 103°48'4 4.0
2016-Jul-10 05:33N 01°14' E 103°46'0 0.0
2016-Jul-08 18:19N 01°14' E 103°46'1 0.6
2016-Jul-08 16:06N 01°14' E 103°47'7 4.5
2016-Jul-08 14:32N 01°18' E 103°41'1 0.0
2016-Jul-06 19:33N 01°17' E 103°42'4 4.2
2016-Jul-06 18:33N 01°13' E 103°40'7 7.1
2016-Jul-06 17:31N 01°14' E 103°47'0 0.1
2016-Jul-06 16:31N 01°14' E 103°47'0 0.0
2016-Jul-06 15:33N 01°14' E 103°47'4 4.0
2016-Jul-06 14:31N 01°12' E 103°51'8 7.9
2016-Jul-06 13:33N 01°16' E 103°58'  
Track history (hours):
 
Tides and Currents Weather Stations Pressure Air Temp Water Temp Dewpoint Dewpoint Depression Visibility Wind Speed Wind Dir Waves Ship Positions

Elandra Spruce

Last reported at 2016-Jul-14 20:33 UTC. Time now 2016-Jul-28 16:29 UTC.
Position N 01°14' E 103°58'.
Warning: this ship's position is 13 days out of date.

Length 183 m; draft 8.1 m.

Type: Tanker. MMSI: 538006719.

Date/timePositionNaut miles runAvg speedWind from/ knotsBaromVisibWave heightAir tempDewpointWater temp
2016-Jul-14 20:33N 01°14' E 103°58'1414.0
2016-Jul-14 19:33N 01°07' E 103°45'8 3.3
2016-Jul-14 17:11N 01°13' E 103°40'5 7.1
2016-Jul-14 16:33N 01°17' E 103°40'2 0.0
2016-Jul-12 18:11N 01°17' E 103°42'1 1.3
2016-Jul-12 17:32N 01°18' E 103°41'6 5.7
2016-Jul-12 16:32N 01°12' E 103°40'1 0.9
2016-Jul-12 15:29N 01°12' E 103°41'0 0.0
2016-Jul-12 14:23N 01°12' E 103°41'0 0.0
2016-Jul-12 13:23N 01°12' E 103°41'0 0.0
2016-Jul-12 12:29N 01°12' E 103°41'0 0.1
2016-Jul-12 10:14N 01°12' E 103°41'0 0.0
2016-Jul-12 09:17N 01°12' E 103°41'0 0.0
2016-Jul-12 06:29N 01°12' E 103°41'0 0.1
2016-Jul-12 05:29N 01°12' E 103°41'0 0.0
2016-Jul-12 01:11N 01°12' E 103°41'0 0.1
2016-Jul-12 00:17N 01°12' E 103°41'0 0.0
2016-Jul-11 23:23N 01°12' E 103°41'0 0.0
2016-Jul-11 22:23N 01°12' E 103°41'0 0.3
2016-Jul-11 21:27N 01°12' E 103°42'5 4.9
2016-Jul-11 20:23N 01°13' E 103°36'4 0.1
2016-Jul-10 07:23N 01°11' E 103°40'8 9.6
2016-Jul-10 06:33N 01°11' E 103°48'4 4.0
2016-Jul-10 05:33N 01°14' E 103°46'0 0.0
2016-Jul-08 18:19N 01°14' E 103°46'1 0.6
2016-Jul-08 16:06N 01°14' E 103°47'7 4.5
2016-Jul-08 14:32N 01°18' E 103°41'1 0.0
2016-Jul-06 19:33N 01°17' E 103°42'4 4.2
2016-Jul-06 18:33N 01°13' E 103°40'7 7.1
2016-Jul-06 17:31N 01°14' E 103°47'0 0.1
2016-Jul-06 16:31N 01°14' E 103°47'0 0.0
2016-Jul-06 15:33N 01°14' E 103°47'4 4.0
2016-Jul-06 14:31N 01°12' E 103°51'8 7.9
2016-Jul-06 13:33N 01°16' E 103°58'  

Dump ship's entire track history